sensor_id;sensor_type;location;lat;lon;timestamp;P1;durP1;ratioP1;P2;durP2;ratioP2
2672;SDS011;1346;51.558;6.996;2022-10-26T00:00:39;14.60;;;7.10;;
2672;SDS011;1346;51.558;6.996;2022-10-26T00:03:07;9.80;;;6.90;;
2672;SDS011;1346;51.558;6.996;2022-10-26T00:05:34;8.87;;;6.93;;
2672;SDS011;1346;51.558;6.996;2022-10-26T00:08:01;10.63;;;6.97;;
2672;SDS011;1346;51.558;6.996;2022-10-26T00:10:29;9.30;;;6.47;;
2672;SDS011;1346;51.558;6.996;2022-10-26T00:12:56;9.65;;;6.72;;
2672;SDS011;1346;51.558;6.996;2022-10-26T00:15:22;8.07;;;6.00;;
2672;SDS011;1346;51.558;6.996;2022-10-26T00:17:50;8.63;;;6.30;;
2672;SDS011;1346;51.558;6.996;2022-10-26T00:20:18;9.07;;;6.30;;
2672;SDS011;1346;51.558;6.996;2022-10-26T00:22:45;11.17;;;6.17;;
2672;SDS011;1346;51.558;6.996;2022-10-26T00:25:12;12.40;;;6.37;;
2672;SDS011;1346;51.558;6.996;2022-10-26T00:27:39;12.32;;;6.10;;
2672;SDS011;1346;51.558;6.996;2022-10-26T00:30:06;9.13;;;6.13;;
2672;SDS011;1346;51.558;6.996;2022-10-26T00:32:34;11.77;;;6.10;;
2672;SDS011;1346;51.558;6.996;2022-10-26T00:35:01;7.80;;;5.83;;
2672;SDS011;1346;51.558;6.996;2022-10-26T00:37:30;11.37;;;6.30;;
2672;SDS011;1346;51.558;6.996;2022-10-26T00:39:56;10.73;;;5.70;;
2672;SDS011;1346;51.558;6.996;2022-10-26T00:42:23;8.03;;;5.53;;
2672;SDS011;1346;51.558;6.996;2022-10-26T00:44:54;8.50;;;6.60;;
2672;SDS011;1346;51.558;6.996;2022-10-26T00:47:34;7.65;;;5.50;;
2672;SDS011;1346;51.558;6.996;2022-10-26T00:50:07;8.27;;;5.13;;
2672;SDS011;1346;51.558;6.996;2022-10-26T00:52:41;12.83;;;5.90;;
2672;SDS011;1346;51.558;6.996;2022-10-26T00:55:09;8.13;;;5.20;;
2672;SDS011;1346;51.558;6.996;2022-10-26T00:57:36;9.93;;;5.03;;
2672;SDS011;1346;51.558;6.996;2022-10-26T01:00:04;8.23;;;5.00;;
2672;SDS011;1346;51.558;6.996;2022-10-26T01:02:33;7.73;;;4.90;;
2672;SDS011;1346;51.558;6.996;2022-10-26T01:05:01;10.90;;;5.80;;
2672;SDS011;1346;51.558;6.996;2022-10-26T01:07:29;8.83;;;5.60;;
2672;SDS011;1346;51.558;6.996;2022-10-26T01:09:58;9.30;;;5.63;;
2672;SDS011;1346;51.558;6.996;2022-10-26T01:12:26;6.40;;;5.17;;
2672;SDS011;1346;51.558;6.996;2022-10-26T01:14:53;9.60;;;5.33;;
2672;SDS011;1346;51.558;6.996;2022-10-26T01:17:24;8.77;;;5.40;;
2672;SDS011;1346;51.558;6.996;2022-10-26T01:23:35;6.83;;;5.40;;
2672;SDS011;1346;51.558;6.996;2022-10-26T01:26:20;7.17;;;5.03;;
2672;SDS011;1346;51.558;6.996;2022-10-26T01:29:27;9.43;;;4.70;;
2672;SDS011;1346;51.558;6.996;2022-10-26T01:32:26;7.87;;;4.70;;
2672;SDS011;1346;51.558;6.996;2022-10-26T01:35:02;9.47;;;4.70;;
2672;SDS011;1346;51.558;6.996;2022-10-26T01:37:35;7.83;;;4.37;;
2672;SDS011;1346;51.558;6.996;2022-10-26T01:40:08;5.90;;;4.20;;
2672;SDS011;1346;51.558;6.996;2022-10-26T01:42:46;7.37;;;4.43;;
2672;SDS011;1346;51.558;6.996;2022-10-26T01:45:17;5.97;;;4.70;;
2672;SDS011;1346;51.558;6.996;2022-10-26T01:47:46;8.23;;;4.53;;
2672;SDS011;1346;51.558;6.996;2022-10-26T01:50:14;7.27;;;4.50;;
2672;SDS011;1346;51.558;6.996;2022-10-26T01:52:43;8.83;;;4.20;;
2672;SDS011;1346;51.558;6.996;2022-10-26T01:58:19;5.97;;;4.30;;
2672;SDS011;1346;51.558;6.996;2022-10-26T02:01:17;7.33;;;3.90;;
2672;SDS011;1346;51.558;6.996;2022-10-26T02:04:12;6.57;;;4.10;;
2672;SDS011;1346;51.558;6.996;2022-10-26T02:06:55;6.17;;;4.40;;
2672;SDS011;1346;51.558;6.996;2022-10-26T02:09:32;5.97;;;3.53;;
2672;SDS011;1346;51.558;6.996;2022-10-26T02:12:09;5.17;;;3.90;;
2672;SDS011;1346;51.558;6.996;2022-10-26T02:14:47;8.63;;;4.47;;
2672;SDS011;1346;51.558;6.996;2022-10-26T02:17:22;9.80;;;4.70;;
2672;SDS011;1346;51.558;6.996;2022-10-26T02:19:56;8.00;;;4.60;;
2672;SDS011;1346;51.558;6.996;2022-10-26T02:22:29;6.20;;;4.23;;
2672;SDS011;1346;51.558;6.996;2022-10-26T02:25:03;5.87;;;4.37;;
2672;SDS011;1346;51.558;6.996;2022-10-26T02:27:33;6.50;;;3.93;;
2672;SDS011;1346;51.558;6.996;2022-10-26T02:30:05;8.30;;;3.90;;
2672;SDS011;1346;51.558;6.996;2022-10-26T02:32:35;6.20;;;4.17;;
2672;SDS011;1346;51.558;6.996;2022-10-26T02:35:09;5.30;;;4.20;;
2672;SDS011;1346;51.558;6.996;2022-10-26T02:37:39;6.50;;;4.40;;
2672;SDS011;1346;51.558;6.996;2022-10-26T02:40:10;7.30;;;4.70;;
2672;SDS011;1346;51.558;6.996;2022-10-26T02:42:45;7.33;;;3.93;;
2672;SDS011;1346;51.558;6.996;2022-10-26T02:45:15;6.27;;;3.67;;
2672;SDS011;1346;51.558;6.996;2022-10-26T02:47:47;7.40;;;4.37;;
2672;SDS011;1346;51.558;6.996;2022-10-26T02:50:16;6.43;;;4.30;;
2672;SDS011;1346;51.558;6.996;2022-10-26T02:52:48;5.20;;;3.70;;
2672;SDS011;1346;51.558;6.996;2022-10-26T02:55:24;6.53;;;3.70;;
2672;SDS011;1346;51.558;6.996;2022-10-26T02:57:56;7.70;;;3.40;;
2672;SDS011;1346;51.558;6.996;2022-10-26T03:00:27;6.03;;;3.70;;
2672;SDS011;1346;51.558;6.996;2022-10-26T03:02:56;8.53;;;4.20;;
2672;SDS011;1346;51.558;6.996;2022-10-26T03:05:28;6.10;;;4.00;;
2672;SDS011;1346;51.558;6.996;2022-10-26T03:07:59;8.53;;;3.93;;
2672;SDS011;1346;51.558;6.996;2022-10-26T03:10:26;8.70;;;4.30;;
2672;SDS011;1346;51.558;6.996;2022-10-26T03:12:53;6.57;;;4.00;;
2672;SDS011;1346;51.558;6.996;2022-10-26T03:15:20;8.70;;;3.67;;
2672;SDS011;1346;51.558;6.996;2022-10-26T03:17:47;4.07;;;3.20;;
2672;SDS011;1346;51.558;6.996;2022-10-26T03:20:14;6.50;;;3.60;;
2672;SDS011;1346;51.558;6.996;2022-10-26T03:22:45;5.70;;;3.73;;
2672;SDS011;1346;51.558;6.996;2022-10-26T03:25:12;5.43;;;3.80;;
2672;SDS011;1346;51.558;6.996;2022-10-26T03:27:40;4.17;;;3.10;;
2672;SDS011;1346;51.558;6.996;2022-10-26T03:30:07;7.77;;;4.20;;
2672;SDS011;1346;51.558;6.996;2022-10-26T03:32:35;3.93;;;3.33;;
2672;SDS011;1346;51.558;6.996;2022-10-26T03:35:02;8.63;;;3.23;;
2672;SDS011;1346;51.558;6.996;2022-10-26T03:37:29;3.87;;;3.03;;
2672;SDS011;1346;51.558;6.996;2022-10-26T03:39:57;4.30;;;3.07;;
2672;SDS011;1346;51.558;6.996;2022-10-26T03:42:24;4.93;;;3.27;;
2672;SDS011;1346;51.558;6.996;2022-10-26T03:44:51;4.63;;;3.00;;
2672;SDS011;1346;51.558;6.996;2022-10-26T03:47:19;4.07;;;3.50;;
2672;SDS011;1346;51.558;6.996;2022-10-26T03:49:46;3.87;;;3.20;;
2672;SDS011;1346;51.558;6.996;2022-10-26T03:52:12;5.60;;;2.90;;
2672;SDS011;1346;51.558;6.996;2022-10-26T03:54:39;6.97;;;3.07;;
2672;SDS011;1346;51.558;6.996;2022-10-26T03:57:07;5.40;;;2.87;;
2672;SDS011;1346;51.558;6.996;2022-10-26T03:59:34;3.90;;;2.60;;
2672;SDS011;1346;51.558;6.996;2022-10-26T04:02:01;8.53;;;3.27;;
2672;SDS011;1346;51.558;6.996;2022-10-26T04:04:28;3.90;;;2.60;;
2672;SDS011;1346;51.558;6.996;2022-10-26T04:06:55;4.10;;;3.00;;
2672;SDS011;1346;51.558;6.996;2022-10-26T04:09:22;3.70;;;2.90;;
2672;SDS011;1346;51.558;6.996;2022-10-26T04:11:49;6.60;;;3.40;;
2672;SDS011;1346;51.558;6.996;2022-10-26T04:14:17;4.53;;;3.50;;
2672;SDS011;1346;51.558;6.996;2022-10-26T04:16:44;4.07;;;3.27;;
2672;SDS011;1346;51.558;6.996;2022-10-26T04:19:11;5.30;;;3.57;;
2672;SDS011;1346;51.558;6.996;2022-10-26T04:21:38;3.70;;;3.00;;
2672;SDS011;1346;51.558;6.996;2022-10-26T04:24:05;4.93;;;3.17;;
2672;SDS011;1346;51.558;6.996;2022-10-26T04:26:32;6.33;;;3.57;;
2672;SDS011;1346;51.558;6.996;2022-10-26T04:28:59;4.17;;;3.37;;
2672;SDS011;1346;51.558;6.996;2022-10-26T04:31:30;4.53;;;3.40;;
2672;SDS011;1346;51.558;6.996;2022-10-26T04:33:57;8.20;;;3.93;;
2672;SDS011;1346;51.558;6.996;2022-10-26T04:36:24;4.60;;;3.27;;
2672;SDS011;1346;51.558;6.996;2022-10-26T04:38:51;4.83;;;3.17;;
2672;SDS011;1346;51.558;6.996;2022-10-26T04:41:18;8.33;;;3.83;;
2672;SDS011;1346;51.558;6.996;2022-10-26T04:43:45;5.47;;;3.50;;
2672;SDS011;1346;51.558;6.996;2022-10-26T04:46:12;4.53;;;3.50;;
2672;SDS011;1346;51.558;6.996;2022-10-26T04:48:40;5.30;;;3.40;;
2672;SDS011;1346;51.558;6.996;2022-10-26T04:51:07;5.00;;;3.57;;
2672;SDS011;1346;51.558;6.996;2022-10-26T04:53:34;4.00;;;2.60;;
2672;SDS011;1346;51.558;6.996;2022-10-26T04:56:01;4.03;;;3.57;;
2672;SDS011;1346;51.558;6.996;2022-10-26T04:58:28;4.53;;;3.27;;
2672;SDS011;1346;51.558;6.996;2022-10-26T05:00:55;5.80;;;3.67;;
2672;SDS011;1346;51.558;6.996;2022-10-26T05:03:22;8.60;;;3.70;;
2672;SDS011;1346;51.558;6.996;2022-10-26T05:05:51;7.03;;;3.83;;
2672;SDS011;1346;51.558;6.996;2022-10-26T05:08:18;4.43;;;3.27;;
2672;SDS011;1346;51.558;6.996;2022-10-26T05:10:46;3.57;;;3.00;;
2672;SDS011;1346;51.558;6.996;2022-10-26T05:13:14;6.47;;;3.70;;
2672;SDS011;1346;51.558;6.996;2022-10-26T05:15:41;5.53;;;3.23;;
2672;SDS011;1346;51.558;6.996;2022-10-26T05:18:08;4.80;;;3.00;;
2672;SDS011;1346;51.558;6.996;2022-10-26T05:20:35;4.53;;;3.07;;
2672;SDS011;1346;51.558;6.996;2022-10-26T05:23:04;5.93;;;3.67;;
2672;SDS011;1346;51.558;6.996;2022-10-26T05:25:35;4.33;;;3.33;;
2672;SDS011;1346;51.558;6.996;2022-10-26T05:28:04;7.97;;;4.23;;
2672;SDS011;1346;51.558;6.996;2022-10-26T05:30:33;4.83;;;3.30;;
2672;SDS011;1346;51.558;6.996;2022-10-26T05:33:01;3.60;;;2.90;;
2672;SDS011;1346;51.558;6.996;2022-10-26T05:35:28;5.93;;;3.70;;
2672;SDS011;1346;51.558;6.996;2022-10-26T05:37:56;4.30;;;3.50;;
2672;SDS011;1346;51.558;6.996;2022-10-26T05:40:24;7.60;;;3.60;;
2672;SDS011;1346;51.558;6.996;2022-10-26T05:42:51;4.70;;;3.50;;
2672;SDS011;1346;51.558;6.996;2022-10-26T05:45:24;8.13;;;3.50;;
2672;SDS011;1346;51.558;6.996;2022-10-26T05:47:51;3.70;;;3.00;;
2672;SDS011;1346;51.558;6.996;2022-10-26T05:50:18;4.47;;;3.30;;
2672;SDS011;1346;51.558;6.996;2022-10-26T05:52:45;6.37;;;3.90;;
2672;SDS011;1346;51.558;6.996;2022-10-26T05:55:14;5.77;;;3.80;;
2672;SDS011;1346;51.558;6.996;2022-10-26T05:57:44;4.73;;;3.60;;
2672;SDS011;1346;51.558;6.996;2022-10-26T06:00:14;5.20;;;3.73;;
2672;SDS011;1346;51.558;6.996;2022-10-26T06:02:46;3.77;;;3.20;;
2672;SDS011;1346;51.558;6.996;2022-10-26T06:05:28;3.70;;;3.00;;
2672;SDS011;1346;51.558;6.996;2022-10-26T06:08:00;6.00;;;3.20;;
2672;SDS011;1346;51.558;6.996;2022-10-26T06:10:28;5.73;;;3.20;;
2672;SDS011;1346;51.558;6.996;2022-10-26T06:12:57;4.43;;;2.87;;
2672;SDS011;1346;51.558;6.996;2022-10-26T06:15:25;4.30;;;2.80;;
2672;SDS011;1346;51.558;6.996;2022-10-26T06:17:55;4.67;;;3.60;;
2672;SDS011;1346;51.558;6.996;2022-10-26T06:20:36;4.00;;;2.87;;
2672;SDS011;1346;51.558;6.996;2022-10-26T06:23:19;4.33;;;3.30;;
2672;SDS011;1346;51.558;6.996;2022-10-26T06:26:05;4.90;;;3.33;;
2672;SDS011;1346;51.558;6.996;2022-10-26T06:28:48;3.33;;;2.70;;
2672;SDS011;1346;51.558;6.996;2022-10-26T06:31:23;4.40;;;3.27;;
2672;SDS011;1346;51.558;6.996;2022-10-26T06:33:51;4.63;;;3.27;;
2672;SDS011;1346;51.558;6.996;2022-10-26T06:36:23;7.07;;;3.53;;
2672;SDS011;1346;51.558;6.996;2022-10-26T06:38:53;4.40;;;3.13;;
2672;SDS011;1346;51.558;6.996;2022-10-26T06:41:24;5.20;;;3.50;;
2672;SDS011;1346;51.558;6.996;2022-10-26T06:43:54;4.83;;;3.10;;
2672;SDS011;1346;51.558;6.996;2022-10-26T06:46:24;10.77;;;3.50;;
2672;SDS011;1346;51.558;6.996;2022-10-26T06:49:05;4.77;;;3.10;;
2672;SDS011;1346;51.558;6.996;2022-10-26T06:51:45;6.50;;;3.43;;
2672;SDS011;1346;51.558;6.996;2022-10-26T06:54:19;5.93;;;3.40;;
2672;SDS011;1346;51.558;6.996;2022-10-26T06:56:53;4.77;;;3.07;;
2672;SDS011;1346;51.558;6.996;2022-10-26T06:59:24;5.60;;;3.27;;
2672;SDS011;1346;51.558;6.996;2022-10-26T07:02:00;4.03;;;2.57;;
2672;SDS011;1346;51.558;6.996;2022-10-26T07:04:27;4.30;;;2.80;;
2672;SDS011;1346;51.558;6.996;2022-10-26T07:06:54;5.73;;;3.00;;
2672;SDS011;1346;51.558;6.996;2022-10-26T07:09:22;5.43;;;3.43;;
2672;SDS011;1346;51.558;6.996;2022-10-26T07:11:49;5.90;;;2.83;;
2672;SDS011;1346;51.558;6.996;2022-10-26T07:14:16;5.53;;;2.63;;
2672;SDS011;1346;51.558;6.996;2022-10-26T07:16:44;5.27;;;2.73;;
2672;SDS011;1346;51.558;6.996;2022-10-26T07:19:11;5.17;;;2.17;;
2672;SDS011;1346;51.558;6.996;2022-10-26T07:21:38;2.80;;;2.10;;
2672;SDS011;1346;51.558;6.996;2022-10-26T07:24:06;5.50;;;3.00;;
2672;SDS011;1346;51.558;6.996;2022-10-26T07:26:33;4.60;;;2.40;;
2672;SDS011;1346;51.558;6.996;2022-10-26T07:29:00;6.43;;;2.80;;
2672;SDS011;1346;51.558;6.996;2022-10-26T07:31:27;4.80;;;2.00;;
2672;SDS011;1346;51.558;6.996;2022-10-26T07:33:56;5.67;;;2.83;;
2672;SDS011;1346;51.558;6.996;2022-10-26T07:36:23;4.83;;;2.20;;
2672;SDS011;1346;51.558;6.996;2022-10-26T07:38:50;6.67;;;2.50;;
2672;SDS011;1346;51.558;6.996;2022-10-26T07:41:17;5.20;;;2.60;;
2672;SDS011;1346;51.558;6.996;2022-10-26T07:43:45;4.03;;;2.70;;
2672;SDS011;1346;51.558;6.996;2022-10-26T07:46:14;2.40;;;1.90;;
2672;SDS011;1346;51.558;6.996;2022-10-26T07:48:42;2.93;;;2.13;;
2672;SDS011;1346;51.558;6.996;2022-10-26T07:51:10;4.47;;;2.33;;
2672;SDS011;1346;51.558;6.996;2022-10-26T07:53:37;6.30;;;2.10;;
2672;SDS011;1346;51.558;6.996;2022-10-26T07:56:05;3.70;;;2.50;;
2672;SDS011;1346;51.558;6.996;2022-10-26T07:58:33;4.20;;;2.30;;
2672;SDS011;1346;51.558;6.996;2022-10-26T08:01:04;3.67;;;2.37;;
2672;SDS011;1346;51.558;6.996;2022-10-26T08:03:32;3.30;;;2.90;;
2672;SDS011;1346;51.558;6.996;2022-10-26T08:05:59;3.00;;;2.47;;
2672;SDS011;1346;51.558;6.996;2022-10-26T08:08:29;4.47;;;2.90;;
2672;SDS011;1346;51.558;6.996;2022-10-26T08:10:56;3.90;;;2.40;;
2672;SDS011;1346;51.558;6.996;2022-10-26T08:13:23;4.10;;;2.90;;
2672;SDS011;1346;51.558;6.996;2022-10-26T08:15:54;8.43;;;3.53;;
2672;SDS011;1346;51.558;6.996;2022-10-26T08:18:22;9.10;;;3.57;;
2672;SDS011;1346;51.558;6.996;2022-10-26T08:20:49;5.50;;;2.83;;
2672;SDS011;1346;51.558;6.996;2022-10-26T08:23:16;5.90;;;3.00;;
2672;SDS011;1346;51.558;6.996;2022-10-26T08:25:45;7.37;;;2.93;;
2672;SDS011;1346;51.558;6.996;2022-10-26T08:28:12;3.87;;;2.60;;
2672;SDS011;1346;51.558;6.996;2022-10-26T08:30:39;4.50;;;2.40;;
2672;SDS011;1346;51.558;6.996;2022-10-26T08:33:06;8.83;;;3.03;;
2672;SDS011;1346;51.558;6.996;2022-10-26T08:35:35;6.33;;;2.40;;
2672;SDS011;1346;51.558;6.996;2022-10-26T08:38:02;5.70;;;2.50;;
2672;SDS011;1346;51.558;6.996;2022-10-26T08:40:30;3.63;;;1.80;;
2672;SDS011;1346;51.558;6.996;2022-10-26T08:43:00;7.57;;;2.70;;
2672;SDS011;1346;51.558;6.996;2022-10-26T08:45:31;4.23;;;1.83;;
2672;SDS011;1346;51.558;6.996;2022-10-26T08:48:03;3.43;;;1.97;;
2672;SDS011;1346;51.558;6.996;2022-10-26T08:50:38;2.70;;;1.30;;
2672;SDS011;1346;51.558;6.996;2022-10-26T08:53:12;3.63;;;1.90;;
2672;SDS011;1346;51.558;6.996;2022-10-26T08:55:48;2.80;;;1.53;;
2672;SDS011;1346;51.558;6.996;2022-10-26T08:58:21;5.10;;;1.30;;
2672;SDS011;1346;51.558;6.996;2022-10-26T09:00:53;3.17;;;1.27;;
2672;SDS011;1346;51.558;6.996;2022-10-26T09:03:21;5.67;;;1.50;;
2672;SDS011;1346;51.558;6.996;2022-10-26T09:05:53;6.00;;;2.17;;
2672;SDS011;1346;51.558;6.996;2022-10-26T09:08:56;5.70;;;1.47;;
2672;SDS011;1346;51.558;6.996;2022-10-26T09:14:29;3.97;;;1.40;;
2672;SDS011;1346;51.558;6.996;2022-10-26T09:17:13;3.67;;;1.23;;
2672;SDS011;1346;51.558;6.996;2022-10-26T09:19:54;5.07;;;1.70;;
2672;SDS011;1346;51.558;6.996;2022-10-26T09:22:38;9.97;;;2.50;;
2672;SDS011;1346;51.558;6.996;2022-10-26T09:25:12;11.03;;;2.50;;
2672;SDS011;1346;51.558;6.996;2022-10-26T09:27:45;7.87;;;2.03;;
2672;SDS011;1346;51.558;6.996;2022-10-26T09:30:18;4.40;;;1.90;;
2672;SDS011;1346;51.558;6.996;2022-10-26T09:32:47;5.40;;;2.50;;
2672;SDS011;1346;51.558;6.996;2022-10-26T09:35:18;8.70;;;2.40;;
2672;SDS011;1346;51.558;6.996;2022-10-26T09:37:48;5.13;;;2.30;;
2672;SDS011;1346;51.558;6.996;2022-10-26T09:40:21;12.50;;;4.10;;
2672;SDS011;1346;51.558;6.996;2022-10-26T09:42:53;12.60;;;2.80;;
2672;SDS011;1346;51.558;6.996;2022-10-26T09:45:26;4.73;;;2.17;;
2672;SDS011;1346;51.558;6.996;2022-10-26T09:47:57;5.07;;;2.80;;
2672;SDS011;1346;51.558;6.996;2022-10-26T09:50:32;9.10;;;3.07;;
2672;SDS011;1346;51.558;6.996;2022-10-26T09:53:01;3.47;;;1.90;;
2672;SDS011;1346;51.558;6.996;2022-10-26T09:55:29;4.47;;;1.97;;
2672;SDS011;1346;51.558;6.996;2022-10-26T09:57:59;6.77;;;2.30;;
2672;SDS011;1346;51.558;6.996;2022-10-26T10:00:30;4.43;;;1.80;;
2672;SDS011;1346;51.558;6.996;2022-10-26T10:02:59;4.10;;;2.00;;
2672;SDS011;1346;51.558;6.996;2022-10-26T10:05:27;8.67;;;2.27;;
2672;SDS011;1346;51.558;6.996;2022-10-26T10:08:08;7.37;;;2.60;;
2672;SDS011;1346;51.558;6.996;2022-10-26T10:10:52;10.77;;;2.27;;
2672;SDS011;1346;51.558;6.996;2022-10-26T10:13:25;4.13;;;2.40;;
2672;SDS011;1346;51.558;6.996;2022-10-26T10:15:58;6.40;;;2.50;;
2672;SDS011;1346;51.558;6.996;2022-10-26T10:18:35;5.30;;;2.10;;
2672;SDS011;1346;51.558;6.996;2022-10-26T10:21:04;7.60;;;2.60;;
2672;SDS011;1346;51.558;6.996;2022-10-26T10:23:33;7.60;;;1.80;;
2672;SDS011;1346;51.558;6.996;2022-10-26T10:26:05;3.13;;;2.10;;
2672;SDS011;1346;51.558;6.996;2022-10-26T10:28:36;4.03;;;2.20;;
2672;SDS011;1346;51.558;6.996;2022-10-26T10:31:17;6.50;;;2.17;;
2672;SDS011;1346;51.558;6.996;2022-10-26T10:33:45;6.17;;;2.10;;
2672;SDS011;1346;51.558;6.996;2022-10-26T10:36:14;6.27;;;1.97;;
2672;SDS011;1346;51.558;6.996;2022-10-26T10:38:44;4.60;;;2.10;;
2672;SDS011;1346;51.558;6.996;2022-10-26T10:41:17;10.40;;;2.20;;
2672;SDS011;1346;51.558;6.996;2022-10-26T10:43:51;5.10;;;1.90;;
2672;SDS011;1346;51.558;6.996;2022-10-26T10:46:23;5.50;;;2.20;;
2672;SDS011;1346;51.558;6.996;2022-10-26T10:48:53;4.70;;;2.53;;
2672;SDS011;1346;51.558;6.996;2022-10-26T10:51:29;9.60;;;2.70;;
2672;SDS011;1346;51.558;6.996;2022-10-26T10:54:03;4.17;;;2.00;;
2672;SDS011;1346;51.558;6.996;2022-10-26T10:56:39;10.43;;;2.50;;
2672;SDS011;1346;51.558;6.996;2022-10-26T11:02:20;5.30;;;2.00;;
2672;SDS011;1346;51.558;6.996;2022-10-26T11:05:02;4.33;;;2.37;;
2672;SDS011;1346;51.558;6.996;2022-10-26T11:07:46;5.03;;;2.00;;
2672;SDS011;1346;51.558;6.996;2022-10-26T11:10:19;7.90;;;2.10;;
2672;SDS011;1346;51.558;6.996;2022-10-26T11:12:52;6.70;;;2.53;;
2672;SDS011;1346;51.558;6.996;2022-10-26T11:15:23;6.43;;;2.43;;
2672;SDS011;1346;51.558;6.996;2022-10-26T11:17:57;5.80;;;2.50;;
2672;SDS011;1346;51.558;6.996;2022-10-26T11:20:31;6.83;;;2.60;;
2672;SDS011;1346;51.558;6.996;2022-10-26T11:23:04;6.57;;;2.47;;
2672;SDS011;1346;51.558;6.996;2022-10-26T11:25:40;6.60;;;2.80;;
2672;SDS011;1346;51.558;6.996;2022-10-26T11:28:15;9.20;;;2.53;;
2672;SDS011;1346;51.558;6.996;2022-10-26T11:30:54;8.20;;;3.00;;
2672;SDS011;1346;51.558;6.996;2022-10-26T11:33:29;9.30;;;2.33;;
2672;SDS011;1346;51.558;6.996;2022-10-26T11:36:02;5.43;;;2.67;;
2672;SDS011;1346;51.558;6.996;2022-10-26T11:38:34;6.07;;;2.87;;
2672;SDS011;1346;51.558;6.996;2022-10-26T11:41:06;5.80;;;2.40;;
2672;SDS011;1346;51.558;6.996;2022-10-26T11:43:42;6.27;;;2.90;;
2672;SDS011;1346;51.558;6.996;2022-10-26T11:46:14;6.43;;;3.33;;
2672;SDS011;1346;51.558;6.996;2022-10-26T11:48:49;5.77;;;2.30;;
2672;SDS011;1346;51.558;6.996;2022-10-26T11:51:31;10.03;;;2.53;;
2672;SDS011;1346;51.558;6.996;2022-10-26T11:54:06;9.97;;;2.73;;
2672;SDS011;1346;51.558;6.996;2022-10-26T11:56:39;7.03;;;2.90;;
2672;SDS011;1346;51.558;6.996;2022-10-26T11:59:14;7.10;;;2.70;;
2672;SDS011;1346;51.558;6.996;2022-10-26T12:01:46;7.67;;;2.80;;
2672;SDS011;1346;51.558;6.996;2022-10-26T12:04:16;8.60;;;2.77;;
2672;SDS011;1346;51.558;6.996;2022-10-26T12:06:46;7.97;;;3.00;;
2672;SDS011;1346;51.558;6.996;2022-10-26T12:09:17;5.37;;;2.40;;
2672;SDS011;1346;51.558;6.996;2022-10-26T12:11:50;4.90;;;2.40;;
2672;SDS011;1346;51.558;6.996;2022-10-26T12:14:25;16.30;;;2.37;;
2672;SDS011;1346;51.558;6.996;2022-10-26T12:17:01;6.87;;;2.63;;
2672;SDS011;1346;51.558;6.996;2022-10-26T12:19:40;6.10;;;2.20;;
2672;SDS011;1346;51.558;6.996;2022-10-26T12:22:14;5.23;;;2.53;;
2672;SDS011;1346;51.558;6.996;2022-10-26T12:24:44;3.97;;;2.27;;
2672;SDS011;1346;51.558;6.996;2022-10-26T12:27:31;4.93;;;2.40;;
2672;SDS011;1346;51.558;6.996;2022-10-26T12:30:22;4.50;;;2.10;;
2672;SDS011;1346;51.558;6.996;2022-10-26T12:32:53;4.70;;;2.33;;
2672;SDS011;1346;51.558;6.996;2022-10-26T12:35:39;3.80;;;1.90;;
2672;SDS011;1346;51.558;6.996;2022-10-26T12:41:25;4.17;;;1.80;;
2672;SDS011;1346;51.558;6.996;2022-10-26T12:44:01;8.33;;;2.10;;
2672;SDS011;1346;51.558;6.996;2022-10-26T12:46:51;3.17;;;1.87;;
2672;SDS011;1346;51.558;6.996;2022-10-26T12:52:29;3.63;;;1.87;;
2672;SDS011;1346;51.558;6.996;2022-10-26T12:58:40;4.83;;;2.00;;
2672;SDS011;1346;51.558;6.996;2022-10-26T13:01:46;5.00;;;2.07;;
2672;SDS011;1346;51.558;6.996;2022-10-26T13:04:53;5.10;;;2.23;;
2672;SDS011;1346;51.558;6.996;2022-10-26T13:08:01;3.30;;;1.93;;
2672;SDS011;1346;51.558;6.996;2022-10-26T13:10:30;4.13;;;2.30;;
2672;SDS011;1346;51.558;6.996;2022-10-26T13:12:59;4.60;;;1.40;;
2672;SDS011;1346;51.558;6.996;2022-10-26T13:15:30;3.33;;;1.93;;
2672;SDS011;1346;51.558;6.996;2022-10-26T13:18:06;7.03;;;1.77;;
2672;SDS011;1346;51.558;6.996;2022-10-26T13:20:36;3.33;;;1.23;;
2672;SDS011;1346;51.558;6.996;2022-10-26T13:23:19;3.47;;;1.47;;
2672;SDS011;1346;51.558;6.996;2022-10-26T13:26:02;5.70;;;1.90;;
2672;SDS011;1346;51.558;6.996;2022-10-26T13:28:41;3.10;;;1.30;;
2672;SDS011;1346;51.558;6.996;2022-10-26T13:34:20;2.90;;;1.60;;
2672;SDS011;1346;51.558;6.996;2022-10-26T13:36:50;4.63;;;2.00;;
2672;SDS011;1346;51.558;6.996;2022-10-26T13:39:26;3.63;;;1.90;;
2672;SDS011;1346;51.558;6.996;2022-10-26T13:41:56;3.30;;;1.60;;
2672;SDS011;1346;51.558;6.996;2022-10-26T13:44:25;4.33;;;1.47;;
2672;SDS011;1346;51.558;6.996;2022-10-26T13:46:58;2.13;;;1.20;;
2672;SDS011;1346;51.558;6.996;2022-10-26T13:49:29;4.30;;;1.20;;
2672;SDS011;1346;51.558;6.996;2022-10-26T13:52:03;2.83;;;1.80;;
2672;SDS011;1346;51.558;6.996;2022-10-26T13:54:43;3.57;;;1.57;;
2672;SDS011;1346;51.558;6.996;2022-10-26T13:57:15;3.53;;;1.53;;
2672;SDS011;1346;51.558;6.996;2022-10-26T13:59:46;5.07;;;1.90;;
2672;SDS011;1346;51.558;6.996;2022-10-26T14:02:17;4.20;;;1.90;;
2672;SDS011;1346;51.558;6.996;2022-10-26T14:04:50;5.63;;;1.40;;
2672;SDS011;1346;51.558;6.996;2022-10-26T14:07:24;4.27;;;1.80;;
2672;SDS011;1346;51.558;6.996;2022-10-26T14:10:00;3.10;;;1.63;;
2672;SDS011;1346;51.558;6.996;2022-10-26T14:12:27;4.20;;;1.47;;
2672;SDS011;1346;51.558;6.996;2022-10-26T14:14:56;5.60;;;1.50;;
2672;SDS011;1346;51.558;6.996;2022-10-26T14:17:30;4.90;;;1.60;;
2672;SDS011;1346;51.558;6.996;2022-10-26T14:19:58;9.53;;;2.13;;
2672;SDS011;1346;51.558;6.996;2022-10-26T14:22:26;8.27;;;2.40;;
2672;SDS011;1346;51.558;6.996;2022-10-26T14:24:55;4.60;;;2.07;;
2672;SDS011;1346;51.558;6.996;2022-10-26T14:27:26;2.03;;;1.40;;
2672;SDS011;1346;51.558;6.996;2022-10-26T14:29:58;3.60;;;1.70;;
2672;SDS011;1346;51.558;6.996;2022-10-26T14:32:27;4.40;;;1.70;;
2672;SDS011;1346;51.558;6.996;2022-10-26T14:34:57;4.17;;;1.63;;
2672;SDS011;1346;51.558;6.996;2022-10-26T14:37:29;6.90;;;1.77;;
2672;SDS011;1346;51.558;6.996;2022-10-26T14:40:03;6.70;;;2.00;;
2672;SDS011;1346;51.558;6.996;2022-10-26T14:42:34;5.40;;;2.70;;
2672;SDS011;1346;51.558;6.996;2022-10-26T14:45:17;4.73;;;1.70;;
2672;SDS011;1346;51.558;6.996;2022-10-26T14:47:49;5.80;;;1.80;;
2672;SDS011;1346;51.558;6.996;2022-10-26T14:50:16;5.50;;;2.00;;
2672;SDS011;1346;51.558;6.996;2022-10-26T14:52:48;9.80;;;2.80;;
2672;SDS011;1346;51.558;6.996;2022-10-26T14:55:17;4.07;;;1.67;;
2672;SDS011;1346;51.558;6.996;2022-10-26T14:57:46;5.00;;;2.10;;
2672;SDS011;1346;51.558;6.996;2022-10-26T15:00:17;5.27;;;1.67;;
2672;SDS011;1346;51.558;6.996;2022-10-26T15:02:46;4.30;;;1.93;;
2672;SDS011;1346;51.558;6.996;2022-10-26T15:05:16;4.43;;;1.83;;
2672;SDS011;1346;51.558;6.996;2022-10-26T15:07:50;5.37;;;2.10;;
2672;SDS011;1346;51.558;6.996;2022-10-26T15:13:24;4.00;;;1.60;;
2672;SDS011;1346;51.558;6.996;2022-10-26T15:15:57;5.93;;;1.43;;
2672;SDS011;1346;51.558;6.996;2022-10-26T15:18:35;3.20;;;1.70;;
2672;SDS011;1346;51.558;6.996;2022-10-26T15:21:06;6.90;;;2.00;;
2672;SDS011;1346;51.558;6.996;2022-10-26T15:23:48;3.37;;;1.73;;
2672;SDS011;1346;51.558;6.996;2022-10-26T15:26:16;3.90;;;1.60;;
2672;SDS011;1346;51.558;6.996;2022-10-26T15:28:45;3.30;;;1.57;;
2672;SDS011;1346;51.558;6.996;2022-10-26T15:34:11;4.90;;;1.63;;
2672;SDS011;1346;51.558;6.996;2022-10-26T15:36:39;5.33;;;2.00;;
2672;SDS011;1346;51.558;6.996;2022-10-26T15:39:07;4.20;;;1.83;;
2672;SDS011;1346;51.558;6.996;2022-10-26T15:41:35;5.53;;;2.00;;
2672;SDS011;1346;51.558;6.996;2022-10-26T15:44:12;6.53;;;1.90;;
2672;SDS011;1346;51.558;6.996;2022-10-26T15:46:41;3.37;;;1.67;;
2672;SDS011;1346;51.558;6.996;2022-10-26T15:49:13;5.40;;;1.70;;
2672;SDS011;1346;51.558;6.996;2022-10-26T15:51:43;3.83;;;1.30;;
2672;SDS011;1346;51.558;6.996;2022-10-26T15:54:11;6.03;;;1.60;;
2672;SDS011;1346;51.558;6.996;2022-10-26T15:56:38;4.27;;;1.70;;
2672;SDS011;1346;51.558;6.996;2022-10-26T15:59:11;3.73;;;1.50;;
2672;SDS011;1346;51.558;6.996;2022-10-26T16:01:41;3.97;;;1.53;;
2672;SDS011;1346;51.558;6.996;2022-10-26T16:04:08;4.60;;;1.67;;
2672;SDS011;1346;51.558;6.996;2022-10-26T16:06:36;2.70;;;1.83;;
2672;SDS011;1346;51.558;6.996;2022-10-26T16:09:05;3.30;;;1.60;;
2672;SDS011;1346;51.558;6.996;2022-10-26T16:11:37;3.23;;;1.80;;
2672;SDS011;1346;51.558;6.996;2022-10-26T16:14:05;8.83;;;2.37;;